sensor_id;sensor_type;location;lat;lon;timestamp;P1;durP1;ratioP1;P2;durP2;ratioP2
65035;SDS011;51603;49.300;8.880;2023-07-08T00:02:11;9.70;;;8.17;;
65035;SDS011;51603;49.300;8.880;2023-07-08T00:04:38;9.63;;;8.57;;
65035;SDS011;51603;49.300;8.880;2023-07-08T00:07:04;10.13;;;8.17;;
65035;SDS011;51603;49.300;8.880;2023-07-08T00:09:31;8.90;;;7.97;;
65035;SDS011;51603;49.300;8.880;2023-07-08T00:11:56;9.50;;;8.03;;
65035;SDS011;51603;49.300;8.880;2023-07-08T00:14:22;9.10;;;8.00;;
65035;SDS011;51603;49.300;8.880;2023-07-08T00:16:48;9.53;;;8.13;;
65035;SDS011;51603;49.300;8.880;2023-07-08T00:19:14;9.70;;;8.70;;
65035;SDS011;51603;49.300;8.880;2023-07-08T00:21:44;10.20;;;8.10;;
65035;SDS011;51603;49.300;8.880;2023-07-08T00:24:10;9.87;;;7.17;;
65035;SDS011;51603;49.300;8.880;2023-07-08T00:26:35;9.80;;;8.07;;
65035;SDS011;51603;49.300;8.880;2023-07-08T00:29:01;13.07;;;8.73;;
65035;SDS011;51603;49.300;8.880;2023-07-08T00:31:27;14.13;;;8.53;;
65035;SDS011;51603;49.300;8.880;2023-07-08T00:33:53;9.00;;;7.57;;
65035;SDS011;51603;49.300;8.880;2023-07-08T00:36:23;9.40;;;8.00;;
65035;SDS011;51603;49.300;8.880;2023-07-08T00:38:50;10.13;;;8.53;;
65035;SDS011;51603;49.300;8.880;2023-07-08T00:43:56;10.50;;;8.20;;
65035;SDS011;51603;49.300;8.880;2023-07-08T00:51:32;9.43;;;7.60;;
65035;SDS011;51603;49.300;8.880;2023-07-08T00:54:11;10.47;;;8.23;;
65035;SDS011;51603;49.300;8.880;2023-07-08T00:56:40;11.80;;;9.10;;
65035;SDS011;51603;49.300;8.880;2023-07-08T00:59:10;10.97;;;8.30;;
65035;SDS011;51603;49.300;8.880;2023-07-08T01:01:43;13.43;;;8.67;;
65035;SDS011;51603;49.300;8.880;2023-07-08T01:04:11;9.23;;;8.30;;
65035;SDS011;51603;49.300;8.880;2023-07-08T01:06:39;12.30;;;8.90;;
65035;SDS011;51603;49.300;8.880;2023-07-08T01:09:08;8.70;;;7.43;;
65035;SDS011;51603;49.300;8.880;2023-07-08T01:11:36;10.67;;;8.53;;
65035;SDS011;51603;49.300;8.880;2023-07-08T01:14:04;9.93;;;8.13;;
65035;SDS011;51603;49.300;8.880;2023-07-08T01:16:32;8.50;;;7.60;;
65035;SDS011;51603;49.300;8.880;2023-07-08T01:18:59;9.00;;;7.63;;
65035;SDS011;51603;49.300;8.880;2023-07-08T01:24:03;11.23;;;8.67;;
65035;SDS011;51603;49.300;8.880;2023-07-08T01:26:31;9.73;;;7.33;;
65035;SDS011;51603;49.300;8.880;2023-07-08T01:28:58;8.50;;;7.60;;
65035;SDS011;51603;49.300;8.880;2023-07-08T01:31:24;10.57;;;8.40;;
65035;SDS011;51603;49.300;8.880;2023-07-08T01:33:51;8.67;;;7.57;;
65035;SDS011;51603;49.300;8.880;2023-07-08T01:36:17;11.03;;;9.23;;
65035;SDS011;51603;49.300;8.880;2023-07-08T01:38:43;10.83;;;7.60;;
65035;SDS011;51603;49.300;8.880;2023-07-08T01:41:11;9.93;;;8.10;;
65035;SDS011;51603;49.300;8.880;2023-07-08T01:43:38;10.20;;;8.67;;
65035;SDS011;51603;49.300;8.880;2023-07-08T01:46:04;9.90;;;8.20;;
65035;SDS011;51603;49.300;8.880;2023-07-08T01:48:38;9.27;;;7.73;;
65035;SDS011;51603;49.300;8.880;2023-07-08T01:51:06;9.47;;;8.47;;
65035;SDS011;51603;49.300;8.880;2023-07-08T01:53:42;10.67;;;8.40;;
65035;SDS011;51603;49.300;8.880;2023-07-08T01:56:09;8.20;;;7.20;;
65035;SDS011;51603;49.300;8.880;2023-07-08T01:58:36;11.43;;;8.50;;
65035;SDS011;51603;49.300;8.880;2023-07-08T02:01:02;8.77;;;7.87;;
65035;SDS011;51603;49.300;8.880;2023-07-08T02:03:28;8.47;;;7.60;;
65035;SDS011;51603;49.300;8.880;2023-07-08T02:05:54;9.63;;;8.63;;
65035;SDS011;51603;49.300;8.880;2023-07-08T02:08:19;8.67;;;7.77;;
65035;SDS011;51603;49.300;8.880;2023-07-08T02:10:49;9.00;;;8.10;;
65035;SDS011;51603;49.300;8.880;2023-07-08T02:13:16;8.70;;;7.30;;
65035;SDS011;51603;49.300;8.880;2023-07-08T02:15:41;9.70;;;8.73;;
65035;SDS011;51603;49.300;8.880;2023-07-08T02:18:07;8.27;;;7.07;;
65035;SDS011;51603;49.300;8.880;2023-07-08T02:20:32;9.60;;;8.00;;
65035;SDS011;51603;49.300;8.880;2023-07-08T02:22:58;10.27;;;7.40;;
65035;SDS011;51603;49.300;8.880;2023-07-08T02:25:24;11.63;;;7.90;;
65035;SDS011;51603;49.300;8.880;2023-07-08T02:27:49;9.10;;;8.00;;
65035;SDS011;51603;49.300;8.880;2023-07-08T02:30:15;10.20;;;8.43;;
65035;SDS011;51603;49.300;8.880;2023-07-08T02:32:40;8.30;;;7.43;;
65035;SDS011;51603;49.300;8.880;2023-07-08T02:35:07;9.57;;;8.50;;
65035;SDS011;51603;49.300;8.880;2023-07-08T02:37:33;8.60;;;7.70;;
65035;SDS011;51603;49.300;8.880;2023-07-08T02:39:59;8.60;;;7.67;;
65035;SDS011;51603;49.300;8.880;2023-07-08T02:42:25;8.93;;;7.80;;
65035;SDS011;51603;49.300;8.880;2023-07-08T02:44:51;10.40;;;8.27;;
65035;SDS011;51603;49.300;8.880;2023-07-08T02:47:17;9.23;;;8.07;;
65035;SDS011;51603;49.300;8.880;2023-07-08T02:49:43;9.20;;;8.10;;
65035;SDS011;51603;49.300;8.880;2023-07-08T02:52:08;10.60;;;7.80;;
65035;SDS011;51603;49.300;8.880;2023-07-08T02:54:34;8.50;;;7.03;;
65035;SDS011;51603;49.300;8.880;2023-07-08T02:56:59;8.73;;;7.77;;
65035;SDS011;51603;49.300;8.880;2023-07-08T02:59:25;7.97;;;6.87;;
65035;SDS011;51603;49.300;8.880;2023-07-08T03:01:53;6.60;;;6.00;;
65035;SDS011;51603;49.300;8.880;2023-07-08T03:04:18;10.67;;;7.97;;
65035;SDS011;51603;49.300;8.880;2023-07-08T03:06:47;9.30;;;7.10;;
65035;SDS011;51603;49.300;8.880;2023-07-08T03:09:15;9.60;;;8.50;;
65035;SDS011;51603;49.300;8.880;2023-07-08T03:11:41;8.30;;;6.97;;
65035;SDS011;51603;49.300;8.880;2023-07-08T03:14:06;8.83;;;7.60;;
65035;SDS011;51603;49.300;8.880;2023-07-08T03:16:32;7.60;;;6.80;;
65035;SDS011;51603;49.300;8.880;2023-07-08T03:18:58;9.97;;;8.03;;
65035;SDS011;51603;49.300;8.880;2023-07-08T03:21:24;9.00;;;6.97;;
65035;SDS011;51603;49.300;8.880;2023-07-08T03:23:50;8.90;;;8.00;;
65035;SDS011;51603;49.300;8.880;2023-07-08T03:26:19;10.70;;;8.13;;
65035;SDS011;51603;49.300;8.880;2023-07-08T03:28:48;9.13;;;7.80;;
65035;SDS011;51603;49.300;8.880;2023-07-08T03:31:15;8.90;;;7.80;;
65035;SDS011;51603;49.300;8.880;2023-07-08T03:33:41;8.03;;;7.23;;
65035;SDS011;51603;49.300;8.880;2023-07-08T03:36:13;8.50;;;7.27;;
65035;SDS011;51603;49.300;8.880;2023-07-08T03:38:47;8.53;;;6.80;;
65035;SDS011;51603;49.300;8.880;2023-07-08T03:41:32;10.40;;;8.80;;
65035;SDS011;51603;49.300;8.880;2023-07-08T03:43:57;8.80;;;6.73;;
65035;SDS011;51603;49.300;8.880;2023-07-08T03:46:23;8.57;;;7.67;;
65035;SDS011;51603;49.300;8.880;2023-07-08T03:48:48;8.00;;;6.60;;
65035;SDS011;51603;49.300;8.880;2023-07-08T03:51:17;8.97;;;7.20;;
65035;SDS011;51603;49.300;8.880;2023-07-08T03:53:47;8.93;;;6.90;;
65035;SDS011;51603;49.300;8.880;2023-07-08T03:56:13;9.77;;;8.13;;
65035;SDS011;51603;49.300;8.880;2023-07-08T03:58:39;8.40;;;7.50;;
65035;SDS011;51603;49.300;8.880;2023-07-08T04:01:05;8.77;;;7.40;;
65035;SDS011;51603;49.300;8.880;2023-07-08T04:03:41;11.37;;;7.23;;
65035;SDS011;51603;49.300;8.880;2023-07-08T04:06:07;11.23;;;8.17;;
65035;SDS011;51603;49.300;8.880;2023-07-08T04:08:33;11.40;;;8.20;;
65035;SDS011;51603;49.300;8.880;2023-07-08T04:10:58;8.67;;;7.03;;
65035;SDS011;51603;49.300;8.880;2023-07-08T04:13:24;9.13;;;7.70;;
65035;SDS011;51603;49.300;8.880;2023-07-08T04:15:51;8.23;;;7.20;;
65035;SDS011;51603;49.300;8.880;2023-07-08T04:18:21;10.73;;;7.63;;
65035;SDS011;51603;49.300;8.880;2023-07-08T04:20:46;8.67;;;7.33;;
65035;SDS011;51603;49.300;8.880;2023-07-08T04:23:20;8.53;;;7.40;;
65035;SDS011;51603;49.300;8.880;2023-07-08T04:25:47;8.20;;;6.80;;
65035;SDS011;51603;49.300;8.880;2023-07-08T04:28:13;8.80;;;7.00;;
65035;SDS011;51603;49.300;8.880;2023-07-08T04:30:39;9.57;;;7.90;;
65035;SDS011;51603;49.300;8.880;2023-07-08T04:33:09;10.03;;;6.93;;
65035;SDS011;51603;49.300;8.880;2023-07-08T04:35:36;7.67;;;6.00;;
65035;SDS011;51603;49.300;8.880;2023-07-08T04:38:06;8.10;;;6.80;;
65035;SDS011;51603;49.300;8.880;2023-07-08T04:40:43;10.00;;;8.20;;
65035;SDS011;51603;49.300;8.880;2023-07-08T04:43:09;8.60;;;7.30;;
65035;SDS011;51603;49.300;8.880;2023-07-08T04:45:39;8.20;;;7.33;;
65035;SDS011;51603;49.300;8.880;2023-07-08T04:48:07;9.93;;;8.20;;
65035;SDS011;51603;49.300;8.880;2023-07-08T04:50:41;9.30;;;8.00;;
65035;SDS011;51603;49.300;8.880;2023-07-08T04:53:07;8.10;;;6.60;;
65035;SDS011;51603;49.300;8.880;2023-07-08T04:55:34;7.23;;;6.47;;
65035;SDS011;51603;49.300;8.880;2023-07-08T04:58:01;8.03;;;6.93;;
65035;SDS011;51603;49.300;8.880;2023-07-08T05:00:27;10.30;;;7.37;;
65035;SDS011;51603;49.300;8.880;2023-07-08T05:02:52;7.60;;;6.80;;
65035;SDS011;51603;49.300;8.880;2023-07-08T05:05:19;8.33;;;6.77;;
65035;SDS011;51603;49.300;8.880;2023-07-08T05:07:45;7.20;;;6.50;;
65035;SDS011;51603;49.300;8.880;2023-07-08T05:10:11;8.83;;;7.60;;
65035;SDS011;51603;49.300;8.880;2023-07-08T05:12:36;7.63;;;6.83;;
65035;SDS011;51603;49.300;8.880;2023-07-08T05:15:02;10.37;;;6.83;;
65035;SDS011;51603;49.300;8.880;2023-07-08T05:17:28;9.20;;;6.90;;
65035;SDS011;51603;49.300;8.880;2023-07-08T05:19:54;10.30;;;6.90;;
65035;SDS011;51603;49.300;8.880;2023-07-08T05:22:22;8.20;;;6.87;;
65035;SDS011;51603;49.300;8.880;2023-07-08T05:24:50;6.80;;;6.13;;
65035;SDS011;51603;49.300;8.880;2023-07-08T05:27:17;7.10;;;5.90;;
65035;SDS011;51603;49.300;8.880;2023-07-08T05:29:45;9.50;;;7.30;;
65035;SDS011;51603;49.300;8.880;2023-07-08T05:32:11;8.07;;;6.80;;
65035;SDS011;51603;49.300;8.880;2023-07-08T05:34:37;7.90;;;6.80;;
65035;SDS011;51603;49.300;8.880;2023-07-08T05:37:02;7.70;;;6.90;;
65035;SDS011;51603;49.300;8.880;2023-07-08T05:39:29;7.10;;;6.40;;
65035;SDS011;51603;49.300;8.880;2023-07-08T05:41:58;7.13;;;6.40;;
65035;SDS011;51603;49.300;8.880;2023-07-08T05:44:24;7.67;;;6.73;;
65035;SDS011;51603;49.300;8.880;2023-07-08T05:46:50;7.10;;;6.40;;
65035;SDS011;51603;49.300;8.880;2023-07-08T05:49:15;7.00;;;6.30;;
65035;SDS011;51603;49.300;8.880;2023-07-08T05:51:43;9.70;;;6.97;;
65035;SDS011;51603;49.300;8.880;2023-07-08T05:54:09;7.90;;;6.50;;
65035;SDS011;51603;49.300;8.880;2023-07-08T05:56:34;6.93;;;6.13;;
65035;SDS011;51603;49.300;8.880;2023-07-08T05:59:00;9.73;;;7.03;;
65035;SDS011;51603;49.300;8.880;2023-07-08T06:01:25;6.20;;;5.57;;
65035;SDS011;51603;49.300;8.880;2023-07-08T06:03:51;6.80;;;5.80;;
65035;SDS011;51603;49.300;8.880;2023-07-08T06:06:17;6.97;;;6.10;;
65035;SDS011;51603;49.300;8.880;2023-07-08T06:08:43;6.83;;;5.63;;
65035;SDS011;51603;49.300;8.880;2023-07-08T06:11:08;8.70;;;6.00;;
65035;SDS011;51603;49.300;8.880;2023-07-08T06:13:34;6.57;;;5.90;;
65035;SDS011;51603;49.300;8.880;2023-07-08T06:16:00;7.67;;;6.43;;
65035;SDS011;51603;49.300;8.880;2023-07-08T06:18:25;8.43;;;6.80;;
65035;SDS011;51603;49.300;8.880;2023-07-08T06:20:51;7.83;;;6.93;;
65035;SDS011;51603;49.300;8.880;2023-07-08T06:23:21;6.83;;;6.00;;
65035;SDS011;51603;49.300;8.880;2023-07-08T06:25:47;7.53;;;6.73;;
65035;SDS011;51603;49.300;8.880;2023-07-08T06:28:13;8.30;;;6.37;;
65035;SDS011;51603;49.300;8.880;2023-07-08T06:30:39;7.63;;;6.50;;
65035;SDS011;51603;49.300;8.880;2023-07-08T06:33:04;7.07;;;6.37;;
65035;SDS011;51603;49.300;8.880;2023-07-08T06:35:30;8.13;;;6.50;;
65035;SDS011;51603;49.300;8.880;2023-07-08T06:37:55;7.70;;;6.90;;
65035;SDS011;51603;49.300;8.880;2023-07-08T06:40:21;6.67;;;5.70;;
65035;SDS011;51603;49.300;8.880;2023-07-08T06:42:47;7.10;;;6.23;;
65035;SDS011;51603;49.300;8.880;2023-07-08T06:45:12;8.17;;;6.67;;
65035;SDS011;51603;49.300;8.880;2023-07-08T06:47:38;6.97;;;6.17;;
65035;SDS011;51603;49.300;8.880;2023-07-08T06:50:04;6.83;;;6.17;;
65035;SDS011;51603;49.300;8.880;2023-07-08T06:52:30;8.37;;;6.80;;
65035;SDS011;51603;49.300;8.880;2023-07-08T06:55:02;8.00;;;6.90;;
65035;SDS011;51603;49.300;8.880;2023-07-08T06:57:31;7.93;;;5.73;;
65035;SDS011;51603;49.300;8.880;2023-07-08T06:59:57;8.07;;;6.37;;
65035;SDS011;51603;49.300;8.880;2023-07-08T07:02:23;7.40;;;6.00;;
65035;SDS011;51603;49.300;8.880;2023-07-08T07:04:48;7.50;;;6.37;;
65035;SDS011;51603;49.300;8.880;2023-07-08T07:07:14;7.33;;;5.83;;
65035;SDS011;51603;49.300;8.880;2023-07-08T07:09:39;7.53;;;5.70;;
65035;SDS011;51603;49.300;8.880;2023-07-08T07:12:05;7.80;;;5.63;;
65035;SDS011;51603;49.300;8.880;2023-07-08T07:14:31;7.87;;;5.37;;
65035;SDS011;51603;49.300;8.880;2023-07-08T07:16:58;5.63;;;4.90;;
65035;SDS011;51603;49.300;8.880;2023-07-08T07:19:24;7.83;;;5.70;;
65035;SDS011;51603;49.300;8.880;2023-07-08T07:21:49;5.57;;;4.70;;
65035;SDS011;51603;49.300;8.880;2023-07-08T07:24:15;6.40;;;5.03;;
65035;SDS011;51603;49.300;8.880;2023-07-08T07:26:40;6.00;;;4.80;;
65035;SDS011;51603;49.300;8.880;2023-07-08T07:29:06;5.67;;;4.90;;
65035;SDS011;51603;49.300;8.880;2023-07-08T07:31:31;7.77;;;4.73;;
65035;SDS011;51603;49.300;8.880;2023-07-08T07:33:58;6.20;;;4.57;;
65035;SDS011;51603;49.300;8.880;2023-07-08T07:36:25;6.30;;;4.37;;
65035;SDS011;51603;49.300;8.880;2023-07-08T07:38:50;5.90;;;4.23;;
65035;SDS011;51603;49.300;8.880;2023-07-08T07:41:16;7.50;;;4.40;;
65035;SDS011;51603;49.300;8.880;2023-07-08T07:43:42;5.47;;;4.30;;
65035;SDS011;51603;49.300;8.880;2023-07-08T07:46:07;8.20;;;4.73;;
65035;SDS011;51603;49.300;8.880;2023-07-08T07:48:33;6.40;;;4.77;;
65035;SDS011;51603;49.300;8.880;2023-07-08T07:50:59;5.40;;;4.63;;
65035;SDS011;51603;49.300;8.880;2023-07-08T07:53:24;4.37;;;3.90;;
65035;SDS011;51603;49.300;8.880;2023-07-08T07:56:00;6.13;;;4.70;;
65035;SDS011;51603;49.300;8.880;2023-07-08T07:58:27;6.10;;;4.00;;
65035;SDS011;51603;49.300;8.880;2023-07-08T08:00:53;5.40;;;4.03;;
65035;SDS011;51603;49.300;8.880;2023-07-08T08:03:19;5.60;;;4.10;;
65035;SDS011;51603;49.300;8.880;2023-07-08T08:05:45;4.90;;;4.30;;
65035;SDS011;51603;49.300;8.880;2023-07-08T08:08:11;5.07;;;4.10;;
65035;SDS011;51603;49.300;8.880;2023-07-08T08:10:37;5.90;;;4.00;;
65035;SDS011;51603;49.300;8.880;2023-07-08T08:13:03;4.53;;;4.13;;
65035;SDS011;51603;49.300;8.880;2023-07-08T08:15:28;8.47;;;4.87;;
65035;SDS011;51603;49.300;8.880;2023-07-08T08:17:54;4.63;;;4.13;;
65035;SDS011;51603;49.300;8.880;2023-07-08T08:20:21;7.83;;;3.90;;
65035;SDS011;51603;49.300;8.880;2023-07-08T08:22:48;6.27;;;4.33;;
65035;SDS011;51603;49.300;8.880;2023-07-08T08:25:15;4.47;;;3.20;;
65035;SDS011;51603;49.300;8.880;2023-07-08T08:27:41;4.73;;;3.13;;
65035;SDS011;51603;49.300;8.880;2023-07-08T08:30:07;4.50;;;3.60;;
65035;SDS011;51603;49.300;8.880;2023-07-08T08:32:33;3.90;;;3.00;;
65035;SDS011;51603;49.300;8.880;2023-07-08T08:34:58;7.53;;;3.20;;
65035;SDS011;51603;49.300;8.880;2023-07-08T08:37:24;4.90;;;3.20;;
65035;SDS011;51603;49.300;8.880;2023-07-08T08:39:49;4.47;;;3.57;;
65035;SDS011;51603;49.300;8.880;2023-07-08T08:42:33;5.47;;;3.20;;
65035;SDS011;51603;49.300;8.880;2023-07-08T08:45:04;4.23;;;2.70;;
65035;SDS011;51603;49.300;8.880;2023-07-08T08:52:49;6.10;;;3.77;;
65035;SDS011;51603;49.300;8.880;2023-07-08T08:55:16;4.70;;;2.90;;
65035;SDS011;51603;49.300;8.880;2023-07-08T08:57:51;4.23;;;3.07;;
65035;SDS011;51603;49.300;8.880;2023-07-08T09:00:44;4.50;;;3.37;;
65035;SDS011;51603;49.300;8.880;2023-07-08T09:03:41;4.77;;;3.40;;
65035;SDS011;51603;49.300;8.880;2023-07-08T09:06:23;3.60;;;2.73;;
65035;SDS011;51603;49.300;8.880;2023-07-08T09:08:52;5.97;;;3.13;;
65035;SDS011;51603;49.300;8.880;2023-07-08T09:11:21;4.83;;;3.20;;
65035;SDS011;51603;49.300;8.880;2023-07-08T09:13:49;4.27;;;3.20;;
65035;SDS011;51603;49.300;8.880;2023-07-08T09:17:19;6.17;;;3.60;;
65035;SDS011;51603;49.300;8.880;2023-07-08T09:19:24;5.80;;;4.13;;
65035;SDS011;51603;49.300;8.880;2023-07-08T09:27:08;5.60;;;3.40;;
65035;SDS011;51603;49.300;8.880;2023-07-08T09:29:34;5.80;;;3.70;;
65035;SDS011;51603;49.300;8.880;2023-07-08T09:32:01;6.00;;;3.37;;
65035;SDS011;51603;49.300;8.880;2023-07-08T09:34:46;6.27;;;3.80;;
65035;SDS011;51603;49.300;8.880;2023-07-08T09:37:22;6.97;;;4.00;;
65035;SDS011;51603;49.300;8.880;2023-07-08T09:39:56;4.40;;;3.63;;
65035;SDS011;51603;49.300;8.880;2023-07-08T09:42:28;10.90;;;3.43;;
65035;SDS011;51603;49.300;8.880;2023-07-08T09:45:08;6.40;;;3.60;;
65035;SDS011;51603;49.300;8.880;2023-07-08T09:47:38;7.20;;;4.17;;
65035;SDS011;51603;49.300;8.880;2023-07-08T09:50:15;6.00;;;3.70;;
65035;SDS011;51603;49.300;8.880;2023-07-08T09:52:50;5.30;;;4.27;;
65035;SDS011;51603;49.300;8.880;2023-07-08T09:55:17;7.80;;;4.30;;
65035;SDS011;51603;49.300;8.880;2023-07-08T09:57:47;6.83;;;4.40;;
65035;SDS011;51603;49.300;8.880;2023-07-08T10:00:16;5.70;;;4.27;;
65035;SDS011;51603;49.300;8.880;2023-07-08T10:05:19;6.60;;;4.20;;
65035;SDS011;51603;49.300;8.880;2023-07-08T10:07:54;5.83;;;3.90;;
65035;SDS011;51603;49.300;8.880;2023-07-08T10:10:28;4.57;;;3.50;;
65035;SDS011;51603;49.300;8.880;2023-07-08T10:13:04;4.93;;;3.53;;
65035;SDS011;51603;49.300;8.880;2023-07-08T10:15:42;5.23;;;3.30;;
65035;SDS011;51603;49.300;8.880;2023-07-08T10:18:13;4.07;;;3.53;;
65035;SDS011;51603;49.300;8.880;2023-07-08T10:25:58;6.63;;;4.77;;
65035;SDS011;51603;49.300;8.880;2023-07-08T10:28:43;5.90;;;3.97;;
65035;SDS011;51603;49.300;8.880;2023-07-08T10:31:19;5.10;;;4.30;;
65035;SDS011;51603;49.300;8.880;2023-07-08T10:36:37;5.57;;;3.43;;
65035;SDS011;51603;49.300;8.880;2023-07-08T10:42:23;5.80;;;3.90;;
65035;SDS011;51603;49.300;8.880;2023-07-08T10:45:26;6.20;;;4.23;;
65035;SDS011;51603;49.300;8.880;2023-07-08T10:53:47;6.17;;;3.93;;
65035;SDS011;51603;49.300;8.880;2023-07-08T11:07:39;4.60;;;3.93;;
65035;SDS011;51603;49.300;8.880;2023-07-08T11:10:20;3.90;;;3.20;;
65035;SDS011;51603;49.300;8.880;2023-07-08T11:12:56;5.47;;;4.00;;
65035;SDS011;51603;49.300;8.880;2023-07-08T11:15:28;4.60;;;3.63;;
65035;SDS011;51603;49.300;8.880;2023-07-08T11:18:03;5.13;;;3.33;;
65035;SDS011;51603;49.300;8.880;2023-07-08T11:29:12;6.23;;;4.40;;
65035;SDS011;51603;49.300;8.880;2023-07-08T11:31:45;4.63;;;3.33;;
65035;SDS011;51603;49.300;8.880;2023-07-08T11:34:12;7.40;;;4.33;;
65035;SDS011;51603;49.300;8.880;2023-07-08T11:36:41;6.00;;;3.70;;
65035;SDS011;51603;49.300;8.880;2023-07-08T11:39:28;7.30;;;4.10;;
65035;SDS011;51603;49.300;8.880;2023-07-08T11:42:19;4.40;;;3.70;;
65035;SDS011;51603;49.300;8.880;2023-07-08T11:44:47;5.43;;;4.10;;
65035;SDS011;51603;49.300;8.880;2023-07-08T11:47:41;5.73;;;4.57;;
65035;SDS011;51603;49.300;8.880;2023-07-08T11:50:18;4.83;;;3.57;;
65035;SDS011;51603;49.300;8.880;2023-07-08T11:53:03;4.40;;;3.97;;
65035;SDS011;51603;49.300;8.880;2023-07-08T11:55:43;6.23;;;3.87;;
65035;SDS011;51603;49.300;8.880;2023-07-08T12:00:57;5.03;;;4.00;;
65035;SDS011;51603;49.300;8.880;2023-07-08T12:03:30;5.07;;;4.33;;
65035;SDS011;51603;49.300;8.880;2023-07-08T12:06:01;6.00;;;3.97;;
65035;SDS011;51603;49.300;8.880;2023-07-08T12:08:35;5.97;;;4.27;;
65035;SDS011;51603;49.300;8.880;2023-07-08T12:11:02;7.63;;;3.63;;
65035;SDS011;51603;49.300;8.880;2023-07-08T12:13:29;6.23;;;3.17;;
65035;SDS011;51603;49.300;8.880;2023-07-08T12:15:55;5.50;;;3.50;;
65035;SDS011;51603;49.300;8.880;2023-07-08T12:18:24;6.37;;;4.20;;
65035;SDS011;51603;49.300;8.880;2023-07-08T12:20:53;4.87;;;3.30;;
65035;SDS011;51603;49.300;8.880;2023-07-08T12:23:22;4.13;;;3.27;;
65035;SDS011;51603;49.300;8.880;2023-07-08T12:25:49;4.30;;;3.53;;
65035;SDS011;51603;49.300;8.880;2023-07-08T12:28:16;6.23;;;3.20;;
65035;SDS011;51603;49.300;8.880;2023-07-08T12:30:43;3.73;;;3.27;;
65035;SDS011;51603;49.300;8.880;2023-07-08T12:33:13;3.73;;;2.83;;
65035;SDS011;51603;49.300;8.880;2023-07-08T12:35:41;6.10;;;4.13;;
65035;SDS011;51603;49.300;8.880;2023-07-08T12:38:17;4.97;;;3.53;;
65035;SDS011;51603;49.300;8.880;2023-07-08T12:40:52;4.50;;;3.70;;
65035;SDS011;51603;49.300;8.880;2023-07-08T12:43:18;4.30;;;3.47;;
65035;SDS011;51603;49.300;8.880;2023-07-08T12:45:44;4.07;;;3.47;;
65035;SDS011;51603;49.300;8.880;2023-07-08T12:48:10;4.87;;;3.20;;
65035;SDS011;51603;49.300;8.880;2023-07-08T12:50:35;6.80;;;3.57;;
65035;SDS011;51603;49.300;8.880;2023-07-08T12:53:03;3.40;;;3.00;;
65035;SDS011;51603;49.300;8.880;2023-07-08T12:55:34;4.13;;;3.00;;
65035;SDS011;51603;49.300;8.880;2023-07-08T12:58:04;6.17;;;2.93;;
65035;SDS011;51603;49.300;8.880;2023-07-08T13:00:34;5.80;;;3.43;;
65035;SDS011;51603;49.300;8.880;2023-07-08T13:03:08;4.60;;;3.67;;
65035;SDS011;51603;49.300;8.880;2023-07-08T13:05:42;4.13;;;3.23;;
65035;SDS011;51603;49.300;8.880;2023-07-08T13:08:10;3.40;;;2.67;;
65035;SDS011;51603;49.300;8.880;2023-07-08T13:10:41;8.13;;;3.10;;
65035;SDS011;51603;49.300;8.880;2023-07-08T13:13:08;6.87;;;3.30;;
65035;SDS011;51603;49.300;8.880;2023-07-08T13:15:40;5.90;;;3.20;;
65035;SDS011;51603;49.300;8.880;2023-07-08T13:18:17;5.97;;;3.07;;
65035;SDS011;51603;49.300;8.880;2023-07-08T13:20:47;5.70;;;3.80;;
65035;SDS011;51603;49.300;8.880;2023-07-08T13:23:16;4.50;;;2.97;;
65035;SDS011;51603;49.300;8.880;2023-07-08T13:25:42;4.60;;;3.40;;
65035;SDS011;51603;49.300;8.880;2023-07-08T13:28:15;5.33;;;3.37;;
65035;SDS011;51603;49.300;8.880;2023-07-08T13:30:58;3.40;;;2.90;;
65035;SDS011;51603;49.300;8.880;2023-07-08T13:33:30;4.93;;;3.33;;
65035;SDS011;51603;49.300;8.880;2023-07-08T13:35:58;4.63;;;3.10;;
65035;SDS011;51603;49.300;8.880;2023-07-08T13:38:31;5.70;;;2.83;;
65035;SDS011;51603;49.300;8.880;2023-07-08T13:40:59;4.50;;;3.10;;
65035;SDS011;51603;49.300;8.880;2023-07-08T13:43:27;5.60;;;3.50;;
65035;SDS011;51603;49.300;8.880;2023-07-08T13:45:55;5.30;;;3.60;;
65035;SDS011;51603;49.300;8.880;2023-07-08T13:48:29;5.33;;;3.50;;
65035;SDS011;51603;49.300;8.880;2023-07-08T13:51:06;4.83;;;3.67;;
65035;SDS011;51603;49.300;8.880;2023-07-08T13:56:21;5.37;;;3.23;;
65035;SDS011;51603;49.300;8.880;2023-07-08T13:59:00;5.20;;;3.50;;
65035;SDS011;51603;49.300;8.880;2023-07-08T14:01:35;5.30;;;2.57;;
65035;SDS011;51603;49.300;8.880;2023-07-08T14:04:04;4.13;;;2.70;;
65035;SDS011;51603;49.300;8.880;2023-07-08T14:06:35;3.73;;;2.97;;
65035;SDS011;51603;49.300;8.880;2023-07-08T14:09:21;3.90;;;3.23;;
65035;SDS011;51603;49.300;8.880;2023-07-08T14:11:48;4.70;;;3.30;;
65035;SDS011;51603;49.300;8.880;2023-07-08T14:14:15;4.10;;;3.17;;
65035;SDS011;51603;49.300;8.880;2023-07-08T14:16:46;5.57;;;3.20;;
65035;SDS011;51603;49.300;8.880;2023-07-08T14:19:26;3.43;;;3.13;;
65035;SDS011;51603;49.300;8.880;2023-07-08T14:21:57;6.17;;;2.40;;
65035;SDS011;51603;49.300;8.880;2023-07-08T14:24:24;4.33;;;3.30;;
65035;SDS011;51603;49.300;8.880;2023-07-08T14:26:50;5.07;;;3.37;;
65035;SDS011;51603;49.300;8.880;2023-07-08T14:29:17;4.10;;;3.37;;
65035;SDS011;51603;49.300;8.880;2023-07-08T14:31:42;6.43;;;3.33;;
65035;SDS011;51603;49.300;8.880;2023-07-08T14:34:12;4.30;;;3.23;;
65035;SDS011;51603;49.300;8.880;2023-07-08T14:36:41;5.67;;;3.60;;
65035;SDS011;51603;49.300;8.880;2023-07-08T14:39:13;4.83;;;3.00;;
65035;SDS011;51603;49.300;8.880;2023-07-08T14:41:40;7.37;;;3.37;;
65035;SDS011;51603;49.300;8.880;2023-07-08T14:44:23;4.50;;;3.03;;
65035;SDS011;51603;49.300;8.880;2023-07-08T14:46:56;4.10;;;2.90;;
65035;SDS011;51603;49.300;8.880;2023-07-08T14:49:23;4.10;;;2.93;;
65035;SDS011;51603;49.300;8.880;2023-07-08T14:51:49;4.67;;;3.03;;
65035;SDS011;51603;49.300;8.880;2023-07-08T14:54:16;5.70;;;3.97;;
65035;SDS011;51603;49.300;8.880;2023-07-08T14:56:43;4.33;;;3.67;;
65035;SDS011;51603;49.300;8.880;2023-07-08T14:59:16;4.60;;;3.63;;
65035;SDS011;51603;49.300;8.880;2023-07-08T15:01:44;5.23;;;3.17;;
65035;SDS011;51603;49.300;8.880;2023-07-08T15:04:10;6.00;;;3.40;;
65035;SDS011;51603;49.300;8.880;2023-07-08T15:06:37;6.53;;;3.20;;
65035;SDS011;51603;49.300;8.880;2023-07-08T15:09:03;4.20;;;2.90;;
65035;SDS011;51603;49.300;8.880;2023-07-08T15:11:30;4.80;;;3.27;;
65035;SDS011;51603;49.300;8.880;2023-07-08T15:13:56;5.40;;;3.30;;
65035;SDS011;51603;49.300;8.880;2023-07-08T15:16:21;5.10;;;2.60;;
65035;SDS011;51603;49.300;8.880;2023-07-08T15:18:47;7.43;;;3.40;;
65035;SDS011;51603;49.300;8.880;2023-07-08T15:21:12;4.50;;;3.17;;
65035;SDS011;51603;49.300;8.880;2023-07-08T15:23:39;4.30;;;3.20;;
65035;SDS011;51603;49.300;8.880;2023-07-08T15:26:05;4.43;;;3.07;;
65035;SDS011;51603;49.300;8.880;2023-07-08T15:28:43;4.60;;;2.93;;
65035;SDS011;51603;49.300;8.880;2023-07-08T15:31:32;4.37;;;3.03;;
65035;SDS011;51603;49.300;8.880;2023-07-08T15:33:59;3.80;;;3.17;;
65035;SDS011;51603;49.300;8.880;2023-07-08T15:36:25;3.80;;;3.17;;
65035;SDS011;51603;49.300;8.880;2023-07-08T15:38:51;5.50;;;3.13;;
65035;SDS011;51603;49.300;8.880;2023-07-08T15:43:46;5.37;;;3.80;;
65035;SDS011;51603;49.300;8.880;2023-07-08T15:46:13;4.03;;;3.20;;
65035;SDS011;51603;49.300;8.880;2023-07-08T15:48:39;6.70;;;3.67;;
65035;SDS011;51603;49.300;8.880;2023-07-08T15:51:05;4.20;;;3.27;;
65035;SDS011;51603;49.300;8.880;2023-07-08T15:53:30;3.20;;;2.80;;
65035;SDS011;51603;49.300;8.880;2023-07-08T15:55:56;3.47;;;2.83;;
65035;SDS011;51603;49.300;8.880;2023-07-08T15:58:28;4.70;;;2.70;;
65035;SDS011;51603;49.300;8.880;2023-07-08T16:00:58;4.43;;;3.40;;
65035;SDS011;51603;49.300;8.880;2023-07-08T16:03:29;5.30;;;2.87;;
65035;SDS011;51603;49.300;8.880;2023-07-08T16:05:57;3.80;;;3.07;;